sensor_id;sensor_type;location;lat;lon;timestamp;temperature;humidity
2997;DHT22;1508;48.744;9.110;2023-06-04T00:02:02;15.20;99.90
2997;DHT22;1508;48.744;9.110;2023-06-04T00:04:48;15.20;99.90
2997;DHT22;1508;48.744;9.110;2023-06-04T00:07:33;15.20;99.90
2997;DHT22;1508;48.744;9.110;2023-06-04T00:10:19;15.20;99.90
2997;DHT22;1508;48.744;9.110;2023-06-04T00:13:05;15.30;99.90
2997;DHT22;1508;48.744;9.110;2023-06-04T00:15:51;15.20;99.90
2997;DHT22;1508;48.744;9.110;2023-06-04T00:18:37;15.20;99.90
2997;DHT22;1508;48.744;9.110;2023-06-04T00:21:22;15.30;99.90
2997;DHT22;1508;48.744;9.110;2023-06-04T00:24:08;15.30;99.90
2997;DHT22;1508;48.744;9.110;2023-06-04T00:26:54;15.20;99.90
2997;DHT22;1508;48.744;9.110;2023-06-04T00:29:40;15.20;99.90
2997;DHT22;1508;48.744;9.110;2023-06-04T00:32:25;15.10;99.90
2997;DHT22;1508;48.744;9.110;2023-06-04T00:35:11;15.10;99.90
2997;DHT22;1508;48.744;9.110;2023-06-04T00:37:57;15.00;99.90
2997;DHT22;1508;48.744;9.110;2023-06-04T00:40:42;15.00;99.90
2997;DHT22;1508;48.744;9.110;2023-06-04T00:43:28;15.00;99.90
2997;DHT22;1508;48.744;9.110;2023-06-04T00:46:14;15.00;99.90
2997;DHT22;1508;48.744;9.110;2023-06-04T00:49:00;15.00;99.90
2997;DHT22;1508;48.744;9.110;2023-06-04T00:51:45;15.00;99.90
2997;DHT22;1508;48.744;9.110;2023-06-04T00:54:31;15.00;99.90
2997;DHT22;1508;48.744;9.110;2023-06-04T00:57:17;15.00;99.90
2997;DHT22;1508;48.744;9.110;2023-06-04T01:00:03;14.90;99.90
2997;DHT22;1508;48.744;9.110;2023-06-04T01:02:49;14.90;99.90
2997;DHT22;1508;48.744;9.110;2023-06-04T01:05:41;14.80;99.90
2997;DHT22;1508;48.744;9.110;2023-06-04T01:08:27;14.80;99.90
2997;DHT22;1508;48.744;9.110;2023-06-04T01:11:13;14.70;99.90
2997;DHT22;1508;48.744;9.110;2023-06-04T01:13:59;14.70;99.90
2997;DHT22;1508;48.744;9.110;2023-06-04T01:22:46;14.60;99.90
2997;DHT22;1508;48.744;9.110;2023-06-04T01:25:37;14.60;99.90
2997;DHT22;1508;48.744;9.110;2023-06-04T01:28:23;14.50;99.90
2997;DHT22;1508;48.744;9.110;2023-06-04T01:31:09;14.50;99.90
2997;DHT22;1508;48.744;9.110;2023-06-04T01:33:55;14.40;99.90
2997;DHT22;1508;48.744;9.110;2023-06-04T01:36:41;14.40;99.90
2997;DHT22;1508;48.744;9.110;2023-06-04T01:39:27;14.40;99.90
2997;DHT22;1508;48.744;9.110;2023-06-04T01:42:12;14.40;99.90
2997;DHT22;1508;48.744;9.110;2023-06-04T01:44:58;14.40;99.90
2997;DHT22;1508;48.744;9.110;2023-06-04T01:47:44;14.40;99.90
2997;DHT22;1508;48.744;9.110;2023-06-04T01:50:30;14.30;99.90
2997;DHT22;1508;48.744;9.110;2023-06-04T01:53:15;14.30;99.90
2997;DHT22;1508;48.744;9.110;2023-06-04T01:56:01;14.30;99.90
2997;DHT22;1508;48.744;9.110;2023-06-04T01:58:47;14.20;99.90
2997;DHT22;1508;48.744;9.110;2023-06-04T02:01:33;14.20;99.90
2997;DHT22;1508;48.744;9.110;2023-06-04T02:04:19;14.10;99.90
2997;DHT22;1508;48.744;9.110;2023-06-04T02:07:04;14.10;99.90
2997;DHT22;1508;48.744;9.110;2023-06-04T02:09:50;14.00;99.90
2997;DHT22;1508;48.744;9.110;2023-06-04T02:12:36;14.00;99.90
2997;DHT22;1508;48.744;9.110;2023-06-04T02:15:23;14.00;99.90
2997;DHT22;1508;48.744;9.110;2023-06-04T02:18:16;13.80;99.90
2997;DHT22;1508;48.744;9.110;2023-06-04T02:21:02;13.80;99.90
2997;DHT22;1508;48.744;9.110;2023-06-04T02:23:47;13.70;99.90
2997;DHT22;1508;48.744;9.110;2023-06-04T02:26:33;13.70;99.90
2997;DHT22;1508;48.744;9.110;2023-06-04T02:29:19;13.70;99.90
2997;DHT22;1508;48.744;9.110;2023-06-04T02:32:05;13.70;99.90
2997;DHT22;1508;48.744;9.110;2023-06-04T02:34:51;13.70;99.90
2997;DHT22;1508;48.744;9.110;2023-06-04T02:37:36;13.70;99.90
2997;DHT22;1508;48.744;9.110;2023-06-04T02:40:22;13.60;99.90
2997;DHT22;1508;48.744;9.110;2023-06-04T02:43:08;13.50;99.90
2997;DHT22;1508;48.744;9.110;2023-06-04T02:45:54;13.50;99.90
2997;DHT22;1508;48.744;9.110;2023-06-04T02:48:39;13.50;99.90
2997;DHT22;1508;48.744;9.110;2023-06-04T02:51:25;13.40;99.90
2997;DHT22;1508;48.744;9.110;2023-06-04T02:54:12;13.20;99.90
2997;DHT22;1508;48.744;9.110;2023-06-04T02:56:57;13.30;99.90
2997;DHT22;1508;48.744;9.110;2023-06-04T02:59:43;13.20;99.90
2997;DHT22;1508;48.744;9.110;2023-06-04T03:02:29;13.00;99.90
2997;DHT22;1508;48.744;9.110;2023-06-04T03:05:15;13.00;99.90
2997;DHT22;1508;48.744;9.110;2023-06-04T03:08:01;13.00;99.90
2997;DHT22;1508;48.744;9.110;2023-06-04T03:10:47;13.00;99.90
2997;DHT22;1508;48.744;9.110;2023-06-04T03:13:33;13.00;99.90
2997;DHT22;1508;48.744;9.110;2023-06-04T03:16:19;12.90;99.90
2997;DHT22;1508;48.744;9.110;2023-06-04T03:19:04;12.90;99.90
2997;DHT22;1508;48.744;9.110;2023-06-04T03:21:50;12.90;99.90
2997;DHT22;1508;48.744;9.110;2023-06-04T03:24:37;12.90;99.90
2997;DHT22;1508;48.744;9.110;2023-06-04T03:27:22;12.80;99.90
2997;DHT22;1508;48.744;9.110;2023-06-04T03:30:08;12.90;99.90
2997;DHT22;1508;48.744;9.110;2023-06-04T03:32:54;12.80;99.90
2997;DHT22;1508;48.744;9.110;2023-06-04T03:35:40;12.70;99.90
2997;DHT22;1508;48.744;9.110;2023-06-04T03:38:26;12.70;99.90
2997;DHT22;1508;48.744;9.110;2023-06-04T03:41:12;12.70;99.90
2997;DHT22;1508;48.744;9.110;2023-06-04T03:43:57;12.80;99.90
2997;DHT22;1508;48.744;9.110;2023-06-04T03:46:44;12.70;99.90
2997;DHT22;1508;48.744;9.110;2023-06-04T03:49:30;12.70;99.90
2997;DHT22;1508;48.744;9.110;2023-06-04T03:52:15;12.80;99.90
2997;DHT22;1508;48.744;9.110;2023-06-04T03:55:01;12.90;99.90
2997;DHT22;1508;48.744;9.110;2023-06-04T03:57:47;12.90;99.90
2997;DHT22;1508;48.744;9.110;2023-06-04T04:00:35;12.90;99.90
2997;DHT22;1508;48.744;9.110;2023-06-04T04:03:21;13.00;99.90
2997;DHT22;1508;48.744;9.110;2023-06-04T04:06:07;13.00;99.90
2997;DHT22;1508;48.744;9.110;2023-06-04T04:08:53;13.20;99.90
2997;DHT22;1508;48.744;9.110;2023-06-04T04:11:38;13.20;99.90
2997;DHT22;1508;48.744;9.110;2023-06-04T04:14:24;13.30;99.90
2997;DHT22;1508;48.744;9.110;2023-06-04T04:17:10;13.40;99.90
2997;DHT22;1508;48.744;9.110;2023-06-04T04:19:56;13.40;99.90
2997;DHT22;1508;48.744;9.110;2023-06-04T04:22:41;13.40;99.90
2997;DHT22;1508;48.744;9.110;2023-06-04T04:25:27;13.40;99.90
2997;DHT22;1508;48.744;9.110;2023-06-04T04:28:13;13.40;99.90
2997;DHT22;1508;48.744;9.110;2023-06-04T04:30:58;13.50;99.90
2997;DHT22;1508;48.744;9.110;2023-06-04T04:33:44;13.60;99.90
2997;DHT22;1508;48.744;9.110;2023-06-04T04:36:30;13.80;99.90
2997;DHT22;1508;48.744;9.110;2023-06-04T04:39:16;13.80;99.90
2997;DHT22;1508;48.744;9.110;2023-06-04T04:42:02;13.80;99.90
2997;DHT22;1508;48.744;9.110;2023-06-04T04:44:48;13.70;99.90
2997;DHT22;1508;48.744;9.110;2023-06-04T04:47:34;13.90;99.90
2997;DHT22;1508;48.744;9.110;2023-06-04T04:50:20;14.00;99.90
2997;DHT22;1508;48.744;9.110;2023-06-04T04:53:06;14.00;99.90
2997;DHT22;1508;48.744;9.110;2023-06-04T04:55:51;14.00;99.90
2997;DHT22;1508;48.744;9.110;2023-06-04T04:58:37;13.90;99.90
2997;DHT22;1508;48.744;9.110;2023-06-04T05:01:23;14.10;99.90
2997;DHT22;1508;48.744;9.110;2023-06-04T05:04:08;14.20;99.90
2997;DHT22;1508;48.744;9.110;2023-06-04T05:06:54;14.40;99.90
2997;DHT22;1508;48.744;9.110;2023-06-04T05:09:40;14.50;99.90
2997;DHT22;1508;48.744;9.110;2023-06-04T05:12:26;14.60;99.90
2997;DHT22;1508;48.744;9.110;2023-06-04T05:15:12;14.80;99.90
2997;DHT22;1508;48.744;9.110;2023-06-04T05:17:57;14.80;99.90
2997;DHT22;1508;48.744;9.110;2023-06-04T05:20:43;14.90;99.90
2997;DHT22;1508;48.744;9.110;2023-06-04T05:23:29;14.90;99.90
2997;DHT22;1508;48.744;9.110;2023-06-04T05:26:15;14.90;99.90
2997;DHT22;1508;48.744;9.110;2023-06-04T05:29:00;15.10;99.90
2997;DHT22;1508;48.744;9.110;2023-06-04T05:31:46;15.20;99.90
2997;DHT22;1508;48.744;9.110;2023-06-04T05:34:32;15.60;99.90
2997;DHT22;1508;48.744;9.110;2023-06-04T05:37:17;16.00;99.90
2997;DHT22;1508;48.744;9.110;2023-06-04T05:40:03;16.30;99.90
2997;DHT22;1508;48.744;9.110;2023-06-04T05:42:49;16.60;99.90
2997;DHT22;1508;48.744;9.110;2023-06-04T05:45:35;16.80;99.90
2997;DHT22;1508;48.744;9.110;2023-06-04T05:48:21;17.10;99.90
2997;DHT22;1508;48.744;9.110;2023-06-04T05:51:07;17.10;99.90
2997;DHT22;1508;48.744;9.110;2023-06-04T05:53:52;17.30;99.90
2997;DHT22;1508;48.744;9.110;2023-06-04T05:56:38;17.50;99.90
2997;DHT22;1508;48.744;9.110;2023-06-04T05:59:24;17.80;99.90
2997;DHT22;1508;48.744;9.110;2023-06-04T06:02:09;18.10;99.90
2997;DHT22;1508;48.744;9.110;2023-06-04T06:04:55;18.20;99.90
2997;DHT22;1508;48.744;9.110;2023-06-04T06:07:41;18.40;99.90
2997;DHT22;1508;48.744;9.110;2023-06-04T06:10:27;18.60;99.90
2997;DHT22;1508;48.744;9.110;2023-06-04T06:13:12;18.80;99.90
2997;DHT22;1508;48.744;9.110;2023-06-04T06:15:58;19.10;99.90
2997;DHT22;1508;48.744;9.110;2023-06-04T06:18:44;18.80;99.90
2997;DHT22;1508;48.744;9.110;2023-06-04T06:21:30;18.70;99.90
2997;DHT22;1508;48.744;9.110;2023-06-04T06:24:15;18.20;99.90
2997;DHT22;1508;48.744;9.110;2023-06-04T06:27:01;17.80;99.90
2997;DHT22;1508;48.744;9.110;2023-06-04T06:29:47;17.80;99.90
2997;DHT22;1508;48.744;9.110;2023-06-04T06:32:32;17.60;99.90
2997;DHT22;1508;48.744;9.110;2023-06-04T06:35:18;17.60;99.90
2997;DHT22;1508;48.744;9.110;2023-06-04T06:38:04;17.70;99.90
2997;DHT22;1508;48.744;9.110;2023-06-04T06:40:50;17.70;99.90
2997;DHT22;1508;48.744;9.110;2023-06-04T06:43:35;18.00;99.90
2997;DHT22;1508;48.744;9.110;2023-06-04T06:46:21;18.00;99.90
2997;DHT22;1508;48.744;9.110;2023-06-04T06:49:07;18.10;99.90
2997;DHT22;1508;48.744;9.110;2023-06-04T06:51:53;18.30;99.90
2997;DHT22;1508;48.744;9.110;2023-06-04T06:54:38;18.60;99.90
2997;DHT22;1508;48.744;9.110;2023-06-04T06:57:24;18.70;99.90
2997;DHT22;1508;48.744;9.110;2023-06-04T07:00:10;18.60;99.90
2997;DHT22;1508;48.744;9.110;2023-06-04T07:02:56;18.30;99.90
2997;DHT22;1508;48.744;9.110;2023-06-04T07:05:41;18.40;99.90
2997;DHT22;1508;48.744;9.110;2023-06-04T07:08:27;18.50;99.90
2997;DHT22;1508;48.744;9.110;2023-06-04T07:11:13;18.30;99.90
2997;DHT22;1508;48.744;9.110;2023-06-04T07:13:59;18.50;99.90
2997;DHT22;1508;48.744;9.110;2023-06-04T07:16:45;18.80;99.90
2997;DHT22;1508;48.744;9.110;2023-06-04T07:19:30;18.30;99.90
2997;DHT22;1508;48.744;9.110;2023-06-04T07:22:16;18.20;99.90
2997;DHT22;1508;48.744;9.110;2023-06-04T07:25:02;18.60;99.90
2997;DHT22;1508;48.744;9.110;2023-06-04T07:27:48;18.70;99.90
2997;DHT22;1508;48.744;9.110;2023-06-04T07:30:34;19.20;99.90
2997;DHT22;1508;48.744;9.110;2023-06-04T07:33:19;19.40;99.90
2997;DHT22;1508;48.744;9.110;2023-06-04T07:36:05;19.50;99.90
2997;DHT22;1508;48.744;9.110;2023-06-04T07:38:51;19.60;99.90
2997;DHT22;1508;48.744;9.110;2023-06-04T07:41:36;19.10;99.90
2997;DHT22;1508;48.744;9.110;2023-06-04T07:44:22;18.90;99.90
2997;DHT22;1508;48.744;9.110;2023-06-04T07:47:08;19.10;99.90
2997;DHT22;1508;48.744;9.110;2023-06-04T07:49:54;19.10;99.90
2997;DHT22;1508;48.744;9.110;2023-06-04T07:52:40;19.10;99.90
2997;DHT22;1508;48.744;9.110;2023-06-04T07:55:25;19.20;99.90
2997;DHT22;1508;48.744;9.110;2023-06-04T07:58:11;19.40;99.90
2997;DHT22;1508;48.744;9.110;2023-06-04T08:00:57;19.60;99.90
2997;DHT22;1508;48.744;9.110;2023-06-04T08:03:42;19.70;99.90
2997;DHT22;1508;48.744;9.110;2023-06-04T08:06:28;19.90;99.90
2997;DHT22;1508;48.744;9.110;2023-06-04T08:09:14;20.20;99.90
2997;DHT22;1508;48.744;9.110;2023-06-04T08:12:00;20.20;99.90
2997;DHT22;1508;48.744;9.110;2023-06-04T08:14:45;20.40;99.90
2997;DHT22;1508;48.744;9.110;2023-06-04T08:17:31;20.70;99.90
2997;DHT22;1508;48.744;9.110;2023-06-04T08:20:17;20.70;99.90
2997;DHT22;1508;48.744;9.110;2023-06-04T08:23:03;20.60;99.90
2997;DHT22;1508;48.744;9.110;2023-06-04T08:25:48;20.50;99.90
2997;DHT22;1508;48.744;9.110;2023-06-04T08:28:34;20.20;99.90
2997;DHT22;1508;48.744;9.110;2023-06-04T08:31:20;19.70;99.90
2997;DHT22;1508;48.744;9.110;2023-06-04T08:34:05;19.80;99.90
2997;DHT22;1508;48.744;9.110;2023-06-04T08:36:51;19.80;99.90
2997;DHT22;1508;48.744;9.110;2023-06-04T08:39:37;19.80;99.90
2997;DHT22;1508;48.744;9.110;2023-06-04T08:42:27;20.10;99.90
2997;DHT22;1508;48.744;9.110;2023-06-04T08:45:14;20.30;99.90
2997;DHT22;1508;48.744;9.110;2023-06-04T08:48:00;20.70;99.90
2997;DHT22;1508;48.744;9.110;2023-06-04T08:50:46;20.80;99.90
2997;DHT22;1508;48.744;9.110;2023-06-04T08:53:33;21.00;99.90
2997;DHT22;1508;48.744;9.110;2023-06-04T08:56:19;21.00;99.90
2997;DHT22;1508;48.744;9.110;2023-06-04T08:59:05;20.80;99.90
2997;DHT22;1508;48.744;9.110;2023-06-04T09:01:53;20.80;99.90
2997;DHT22;1508;48.744;9.110;2023-06-04T09:04:39;20.80;99.90
2997;DHT22;1508;48.744;9.110;2023-06-04T09:07:25;20.80;99.90
2997;DHT22;1508;48.744;9.110;2023-06-04T09:10:11;20.80;99.90
2997;DHT22;1508;48.744;9.110;2023-06-04T09:12:59;20.80;99.90
2997;DHT22;1508;48.744;9.110;2023-06-04T09:15:46;21.00;99.90
2997;DHT22;1508;48.744;9.110;2023-06-04T09:18:43;21.20;99.90
2997;DHT22;1508;48.744;9.110;2023-06-04T09:21:30;21.40;99.90
2997;DHT22;1508;48.744;9.110;2023-06-04T09:24:16;21.40;99.90
2997;DHT22;1508;48.744;9.110;2023-06-04T09:27:08;21.30;99.90
2997;DHT22;1508;48.744;9.110;2023-06-04T09:29:55;21.50;99.90
2997;DHT22;1508;48.744;9.110;2023-06-04T09:32:40;21.40;99.90
2997;DHT22;1508;48.744;9.110;2023-06-04T09:35:26;21.50;99.90
2997;DHT22;1508;48.744;9.110;2023-06-04T09:38:12;21.30;99.90
2997;DHT22;1508;48.744;9.110;2023-06-04T09:40:58;21.20;99.90
2997;DHT22;1508;48.744;9.110;2023-06-04T09:43:43;21.40;99.90
2997;DHT22;1508;48.744;9.110;2023-06-04T09:46:29;21.70;99.90
2997;DHT22;1508;48.744;9.110;2023-06-04T09:49:15;22.00;99.90
2997;DHT22;1508;48.744;9.110;2023-06-04T09:52:01;22.00;99.90
2997;DHT22;1508;48.744;9.110;2023-06-04T09:54:46;22.20;99.90
2997;DHT22;1508;48.744;9.110;2023-06-04T09:57:32;22.20;99.90
2997;DHT22;1508;48.744;9.110;2023-06-04T10:00:19;22.30;99.90
2997;DHT22;1508;48.744;9.110;2023-06-04T10:03:05;22.00;99.90
2997;DHT22;1508;48.744;9.110;2023-06-04T10:05:53;22.20;99.90
2997;DHT22;1508;48.744;9.110;2023-06-04T10:08:39;22.30;99.90
2997;DHT22;1508;48.744;9.110;2023-06-04T10:11:34;22.50;99.90
2997;DHT22;1508;48.744;9.110;2023-06-04T10:14:27;22.50;99.90
2997;DHT22;1508;48.744;9.110;2023-06-04T10:17:14;22.40;99.90
2997;DHT22;1508;48.744;9.110;2023-06-04T10:20:01;22.40;99.90
2997;DHT22;1508;48.744;9.110;2023-06-04T10:22:47;22.50;99.90
2997;DHT22;1508;48.744;9.110;2023-06-04T10:25:36;22.50;99.90
2997;DHT22;1508;48.744;9.110;2023-06-04T10:28:22;22.70;99.90
2997;DHT22;1508;48.744;9.110;2023-06-04T10:31:09;22.80;99.90
2997;DHT22;1508;48.744;9.110;2023-06-04T10:33:58;22.90;99.90
2997;DHT22;1508;48.744;9.110;2023-06-04T10:36:44;23.00;99.60
2997;DHT22;1508;48.744;9.110;2023-06-04T10:39:30;23.10;99.80
2997;DHT22;1508;48.744;9.110;2023-06-04T10:42:16;23.10;98.90
2997;DHT22;1508;48.744;9.110;2023-06-04T10:45:02;23.00;98.90
2997;DHT22;1508;48.744;9.110;2023-06-04T10:47:48;23.00;99.40
2997;DHT22;1508;48.744;9.110;2023-06-04T10:50:49;23.10;99.20
2997;DHT22;1508;48.744;9.110;2023-06-04T10:53:37;23.10;98.90
2997;DHT22;1508;48.744;9.110;2023-06-04T10:56:27;23.10;98.70
2997;DHT22;1508;48.744;9.110;2023-06-04T10:59:14;23.10;99.30
2997;DHT22;1508;48.744;9.110;2023-06-04T11:02:06;23.20;98.80
2997;DHT22;1508;48.744;9.110;2023-06-04T11:05:02;23.00;98.30
2997;DHT22;1508;48.744;9.110;2023-06-04T11:07:48;22.80;98.10
2997;DHT22;1508;48.744;9.110;2023-06-04T11:10:35;23.10;98.70
2997;DHT22;1508;48.744;9.110;2023-06-04T11:13:24;23.20;98.20
2997;DHT22;1508;48.744;9.110;2023-06-04T11:16:17;23.60;98.30
2997;DHT22;1508;48.744;9.110;2023-06-04T11:19:03;23.90;98.00
2997;DHT22;1508;48.744;9.110;2023-06-04T11:21:49;24.10;97.30
2997;DHT22;1508;48.744;9.110;2023-06-04T11:24:35;24.00;97.50
2997;DHT22;1508;48.744;9.110;2023-06-04T11:27:21;24.00;97.10
2997;DHT22;1508;48.744;9.110;2023-06-04T11:30:07;24.00;97.40
2997;DHT22;1508;48.744;9.110;2023-06-04T11:33:00;24.20;97.40
2997;DHT22;1508;48.744;9.110;2023-06-04T11:35:46;24.40;96.50
2997;DHT22;1508;48.744;9.110;2023-06-04T11:38:31;23.90;96.00
2997;DHT22;1508;48.744;9.110;2023-06-04T11:41:17;23.90;97.20
2997;DHT22;1508;48.744;9.110;2023-06-04T11:44:04;23.60;96.70
2997;DHT22;1508;48.744;9.110;2023-06-04T11:46:50;23.50;96.70
2997;DHT22;1508;48.744;9.110;2023-06-04T11:49:36;23.40;96.60
2997;DHT22;1508;48.744;9.110;2023-06-04T11:52:21;23.70;96.00
2997;DHT22;1508;48.744;9.110;2023-06-04T11:55:08;23.90;95.70
2997;DHT22;1508;48.744;9.110;2023-06-04T11:57:54;24.00;95.70
2997;DHT22;1508;48.744;9.110;2023-06-04T12:00:40;23.90;96.00
2997;DHT22;1508;48.744;9.110;2023-06-04T12:03:35;24.00;96.10
2997;DHT22;1508;48.744;9.110;2023-06-04T12:06:22;23.90;96.70
2997;DHT22;1508;48.744;9.110;2023-06-04T12:09:07;23.90;94.80
2997;DHT22;1508;48.744;9.110;2023-06-04T12:12:03;23.90;94.70
2997;DHT22;1508;48.744;9.110;2023-06-04T12:14:56;24.10;94.70
2997;DHT22;1508;48.744;9.110;2023-06-04T12:17:54;24.30;94.80
2997;DHT22;1508;48.744;9.110;2023-06-04T12:20:40;24.30;95.10
2997;DHT22;1508;48.744;9.110;2023-06-04T12:23:26;24.50;94.20
2997;DHT22;1508;48.744;9.110;2023-06-04T12:26:24;24.50;94.10
2997;DHT22;1508;48.744;9.110;2023-06-04T12:29:11;24.20;93.40
2997;DHT22;1508;48.744;9.110;2023-06-04T12:32:06;24.00;94.60
2997;DHT22;1508;48.744;9.110;2023-06-04T12:34:52;23.90;93.70
2997;DHT22;1508;48.744;9.110;2023-06-04T12:37:38;23.70;93.90
2997;DHT22;1508;48.744;9.110;2023-06-04T12:40:24;23.70;94.20
2997;DHT22;1508;48.744;9.110;2023-06-04T12:43:09;23.80;94.70
2997;DHT22;1508;48.744;9.110;2023-06-04T12:45:55;24.00;93.80
2997;DHT22;1508;48.744;9.110;2023-06-04T12:48:41;23.80;93.40
2997;DHT22;1508;48.744;9.110;2023-06-04T12:51:27;23.90;93.50
2997;DHT22;1508;48.744;9.110;2023-06-04T12:54:12;23.80;94.80
2997;DHT22;1508;48.744;9.110;2023-06-04T12:56:58;23.90;93.50
2997;DHT22;1508;48.744;9.110;2023-06-04T12:59:44;24.10;93.10
2997;DHT22;1508;48.744;9.110;2023-06-04T13:02:30;24.40;93.10
2997;DHT22;1508;48.744;9.110;2023-06-04T13:05:16;24.40;92.60
2997;DHT22;1508;48.744;9.110;2023-06-04T13:08:01;24.20;92.50
2997;DHT22;1508;48.744;9.110;2023-06-04T13:10:47;23.80;92.00
2997;DHT22;1508;48.744;9.110;2023-06-04T13:13:33;23.70;92.70
2997;DHT22;1508;48.744;9.110;2023-06-04T13:16:19;23.60;92.60
2997;DHT22;1508;48.744;9.110;2023-06-04T13:19:05;23.90;91.60
2997;DHT22;1508;48.744;9.110;2023-06-04T13:21:51;24.20;90.80
2997;DHT22;1508;48.744;9.110;2023-06-04T13:24:37;24.50;90.50
2997;DHT22;1508;48.744;9.110;2023-06-04T13:27:22;24.40;89.70
2997;DHT22;1508;48.744;9.110;2023-06-04T13:30:08;24.60;90.30
2997;DHT22;1508;48.744;9.110;2023-06-04T13:32:54;24.60;90.70
2997;DHT22;1508;48.744;9.110;2023-06-04T13:35:40;24.30;90.90
2997;DHT22;1508;48.744;9.110;2023-06-04T13:38:26;24.30;90.80
2997;DHT22;1508;48.744;9.110;2023-06-04T13:41:11;24.50;91.20
2997;DHT22;1508;48.744;9.110;2023-06-04T13:43:57;24.40;90.60
2997;DHT22;1508;48.744;9.110;2023-06-04T13:46:43;24.20;90.20
2997;DHT22;1508;48.744;9.110;2023-06-04T13:49:29;24.30;91.10
2997;DHT22;1508;48.744;9.110;2023-06-04T13:52:14;24.50;90.40
2997;DHT22;1508;48.744;9.110;2023-06-04T13:55:00;24.70;90.40
2997;DHT22;1508;48.744;9.110;2023-06-04T13:57:46;24.50;90.30
2997;DHT22;1508;48.744;9.110;2023-06-04T14:00:33;24.40;90.50
2997;DHT22;1508;48.744;9.110;2023-06-04T14:03:19;24.50;90.20
2997;DHT22;1508;48.744;9.110;2023-06-04T14:06:04;24.70;87.90
2997;DHT22;1508;48.744;9.110;2023-06-04T14:08:50;24.60;88.10
2997;DHT22;1508;48.744;9.110;2023-06-04T14:11:38;24.60;89.90
2997;DHT22;1508;48.744;9.110;2023-06-04T14:14:24;24.40;87.20
2997;DHT22;1508;48.744;9.110;2023-06-04T14:17:09;24.30;88.30
2997;DHT22;1508;48.744;9.110;2023-06-04T14:19:55;24.20;89.10
2997;DHT22;1508;48.744;9.110;2023-06-04T14:22:41;23.70;90.00
2997;DHT22;1508;48.744;9.110;2023-06-04T14:25:27;23.80;90.00
2997;DHT22;1508;48.744;9.110;2023-06-04T14:28:12;24.00;88.00
2997;DHT22;1508;48.744;9.110;2023-06-04T14:30:58;24.30;87.60
2997;DHT22;1508;48.744;9.110;2023-06-04T14:33:44;24.50;88.50
2997;DHT22;1508;48.744;9.110;2023-06-04T14:36:30;24.50;86.10
2997;DHT22;1508;48.744;9.110;2023-06-04T14:39:15;24.50;86.50
2997;DHT22;1508;48.744;9.110;2023-06-04T14:42:01;24.20;86.70
2997;DHT22;1508;48.744;9.110;2023-06-04T14:44:47;24.20;89.60
2997;DHT22;1508;48.744;9.110;2023-06-04T14:47:33;24.00;88.00
2997;DHT22;1508;48.744;9.110;2023-06-04T14:50:19;24.10;87.80
2997;DHT22;1508;48.744;9.110;2023-06-04T14:53:04;24.00;87.60
2997;DHT22;1508;48.744;9.110;2023-06-04T14:55:50;23.80;87.80
2997;DHT22;1508;48.744;9.110;2023-06-04T14:58:36;23.90;87.20
2997;DHT22;1508;48.744;9.110;2023-06-04T15:01:21;24.00;88.10
2997;DHT22;1508;48.744;9.110;2023-06-04T15:04:07;24.10;87.30
2997;DHT22;1508;48.744;9.110;2023-06-04T15:06:53;24.10;87.90
2997;DHT22;1508;48.744;9.110;2023-06-04T15:09:39;24.00;88.50
2997;DHT22;1508;48.744;9.110;2023-06-04T15:12:24;24.10;87.80
2997;DHT22;1508;48.744;9.110;2023-06-04T15:15:10;24.00;86.70
2997;DHT22;1508;48.744;9.110;2023-06-04T15:17:56;24.00;87.50
2997;DHT22;1508;48.744;9.110;2023-06-04T15:20:42;23.70;86.00
2997;DHT22;1508;48.744;9.110;2023-06-04T15:23:27;23.70;85.70
2997;DHT22;1508;48.744;9.110;2023-06-04T15:26:13;23.80;86.80
2997;DHT22;1508;48.744;9.110;2023-06-04T15:28:59;23.80;85.10
2997;DHT22;1508;48.744;9.110;2023-06-04T15:31:45;23.90;85.80
2997;DHT22;1508;48.744;9.110;2023-06-04T15:34:31;23.90;84.60
2997;DHT22;1508;48.744;9.110;2023-06-04T15:37:16;23.60;85.50
2997;DHT22;1508;48.744;9.110;2023-06-04T15:40:02;23.40;86.00
2997;DHT22;1508;48.744;9.110;2023-06-04T15:42:48;23.50;85.70
2997;DHT22;1508;48.744;9.110;2023-06-04T15:45:34;23.50;86.00
2997;DHT22;1508;48.744;9.110;2023-06-04T15:48:20;23.50;86.60
2997;DHT22;1508;48.744;9.110;2023-06-04T15:51:06;23.40;85.60
2997;DHT22;1508;48.744;9.110;2023-06-04T15:53:51;23.50;85.20
2997;DHT22;1508;48.744;9.110;2023-06-04T15:56:38;23.50;85.30
2997;DHT22;1508;48.744;9.110;2023-06-04T15:59:23;23.40;82.70
2997;DHT22;1508;48.744;9.110;2023-06-04T16:02:09;23.40;83.50
2997;DHT22;1508;48.744;9.110;2023-06-04T16:04:55;23.30;82.60
2997;DHT22;1508;48.744;9.110;2023-06-04T16:07:41;23.20;83.50
2997;DHT22;1508;48.744;9.110;2023-06-04T16:10:26;23.20;82.50
2997;DHT22;1508;48.744;9.110;2023-06-04T16:13:12;23.40;87.90
2997;DHT22;1508;48.744;9.110;2023-06-04T16:15:58;23.40;91.50
2997;DHT22;1508;48.744;9.110;2023-06-04T16:18:46;23.10;82.00
2997;DHT22;1508;48.744;9.110;2023-06-04T16:21:32;23.40;86.30
2997;DHT22;1508;48.744;9.110;2023-06-04T16:24:17;23.60;83.30
2997;DHT22;1508;48.744;9.110;2023-06-04T16:27:03;23.70;84.60
2997;DHT22;1508;48.744;9.110;2023-06-04T16:29:49;23.50;81.80
2997;DHT22;1508;48.744;9.110;2023-06-04T16:32:35;23.60;84.60
2997;DHT22;1508;48.744;9.110;2023-06-04T16:35:20;23.60;84.10
2997;DHT22;1508;48.744;9.110;2023-06-04T16:38:06;23.70;83.50
2997;DHT22;1508;48.744;9.110;2023-06-04T16:40:52;23.50;82.10
2997;DHT22;1508;48.744;9.110;2023-06-04T16:43:38;23.50;83.30
2997;DHT22;1508;48.744;9.110;2023-06-04T16:46:24;23.60;83.70
2997;DHT22;1508;48.744;9.110;2023-06-04T16:49:09;23.50;82.80
2997;DHT22;1508;48.744;9.110;2023-06-04T16:51:55;23.60;83.40
2997;DHT22;1508;48.744;9.110;2023-06-04T16:54:41;23.80;87.30
2997;DHT22;1508;48.744;9.110;2023-06-04T16:57:27;23.80;84.80
2997;DHT22;1508;48.744;9.110;2023-06-04T17:00:12;23.60;82.30
2997;DHT22;1508;48.744;9.110;2023-06-04T17:02:58;23.60;83.10
2997;DHT22;1508;48.744;9.110;2023-06-04T17:05:44;23.60;84.40
2997;DHT22;1508;48.744;9.110;2023-06-04T17:08:30;23.70;82.70
2997;DHT22;1508;48.744;9.110;2023-06-04T17:11:16;23.70;83.40
2997;DHT22;1508;48.744;9.110;2023-06-04T17:14:02;23.60;83.30
2997;DHT22;1508;48.744;9.110;2023-06-04T17:16:47;23.60;82.10
2997;DHT22;1508;48.744;9.110;2023-06-04T17:19:33;23.30;83.30
2997;DHT22;1508;48.744;9.110;2023-06-04T17:22:19;23.40;82.90
2997;DHT22;1508;48.744;9.110;2023-06-04T17:25:05;23.50;84.20
2997;DHT22;1508;48.744;9.110;2023-06-04T17:27:51;23.70;85.10
2997;DHT22;1508;48.744;9.110;2023-06-04T17:30:36;23.80;86.00
2997;DHT22;1508;48.744;9.110;2023-06-04T17:33:22;23.60;84.30
2997;DHT22;1508;48.744;9.110;2023-06-04T17:36:08;23.30;85.40
2997;DHT22;1508;48.744;9.110;2023-06-04T17:38:54;23.30;84.30
2997;DHT22;1508;48.744;9.110;2023-06-04T17:41:39;23.20;85.20
2997;DHT22;1508;48.744;9.110;2023-06-04T17:44:25;23.20;87.10
2997;DHT22;1508;48.744;9.110;2023-06-04T17:47:11;23.20;85.00
2997;DHT22;1508;48.744;9.110;2023-06-04T17:49:57;23.00;85.00
2997;DHT22;1508;48.744;9.110;2023-06-04T17:52:42;23.00;86.20
2997;DHT22;1508;48.744;9.110;2023-06-04T17:55:28;22.90;85.80
2997;DHT22;1508;48.744;9.110;2023-06-04T17:58:14;22.80;86.30
2997;DHT22;1508;48.744;9.110;2023-06-04T18:01:00;22.90;85.90
2997;DHT22;1508;48.744;9.110;2023-06-04T18:03:45;23.00;85.80
2997;DHT22;1508;48.744;9.110;2023-06-04T18:06:31;23.10;86.20
2997;DHT22;1508;48.744;9.110;2023-06-04T18:09:17;22.90;85.40
2997;DHT22;1508;48.744;9.110;2023-06-04T18:12:03;22.60;85.40